createdAt,value
2023-01-21T00:01:12.648Z,102130.16
2023-01-21T00:03:40.807Z,102125.69
2023-01-21T00:06:08.516Z,102129.91
2023-01-21T00:08:36.264Z,102126.81
2023-01-21T00:11:08.307Z,102126.81
2023-01-21T00:13:36.468Z,102124.47
2023-01-21T00:16:05.110Z,102126.00
2023-01-21T00:18:33.420Z,102121.63
2023-01-21T00:21:01.284Z,102121.50
2023-01-21T00:23:28.999Z,102125.09
2023-01-21T00:26:04.797Z,102122.22
2023-01-21T00:28:34.130Z,102129.09
2023-01-21T00:31:03.578Z,102128.66
2023-01-21T00:33:32.088Z,102136.22
2023-01-21T00:36:04.601Z,102135.63
2023-01-21T00:38:32.873Z,102137.13
2023-01-21T00:41:08.926Z,102140.22
2023-01-21T00:43:37.200Z,102143.19
2023-01-21T00:46:04.802Z,102144.00
2023-01-21T00:48:32.542Z,102133.72
2023-01-21T00:51:01.071Z,102141.47
2023-01-21T00:53:30.481Z,102141.81
2023-01-21T00:56:12.788Z,102133.53
2023-01-21T00:58:43.433Z,102132.28
2023-01-21T01:01:16.960Z,102128.41
2023-01-21T01:03:45.351Z,102130.63
2023-01-21T01:06:16.310Z,102132.84
2023-01-21T01:08:44.765Z,102137.81
2023-01-21T01:11:13.304Z,102133.25
2023-01-21T01:13:41.384Z,102137.22
2023-01-21T01:16:10.884Z,102141.59
2023-01-21T01:18:38.796Z,102130.81
2023-01-21T01:21:06.506Z,102135.19
2023-01-21T01:23:34.093Z,102139.16
2023-01-21T01:26:02.641Z,102135.50
2023-01-21T01:28:31.447Z,102132.22
2023-01-21T01:30:59.959Z,102131.72
2023-01-21T01:33:27.994Z,102130.03
2023-01-21T01:35:55.539Z,102133.22
2023-01-21T01:38:23.307Z,102133.59
2023-01-21T01:40:52.648Z,102130.03
2023-01-21T01:43:26.381Z,102132.72
2023-01-21T01:45:54.788Z,102129.25
2023-01-21T01:48:32.165Z,102131.91
2023-01-21T01:51:04.378Z,102132.81
2023-01-21T01:53:32.548Z,102126.22
2023-01-21T01:56:00.693Z,102132.44
2023-01-21T01:58:30.856Z,102128.16
2023-01-21T02:00:59.755Z,102127.50
2023-01-21T02:03:46.153Z,102127.38
2023-01-21T02:06:15.311Z,102126.72
2023-01-21T02:08:47.717Z,102128.06
2023-01-21T02:11:17.273Z,102137.56
2023-01-21T02:13:53.293Z,102137.91
2023-01-21T02:16:42.728Z,102142.72
2023-01-21T02:19:28.642Z,102143.25
2023-01-21T02:22:31.275Z,102151.88
2023-01-21T02:25:28.953Z,102148.00
2023-01-21T02:28:16.798Z,102153.34
2023-01-21T02:30:59.406Z,102147.19
2023-01-21T02:33:46.297Z,102145.06
2023-01-21T02:36:41.811Z,102158.31
2023-01-21T02:39:57.333Z,102158.22
2023-01-21T02:42:46.578Z,102168.81
2023-01-21T02:45:29.762Z,102156.19
2023-01-21T02:48:11.232Z,102170.69
2023-01-21T02:50:44.793Z,102173.34
2023-01-21T02:53:30.135Z,102175.97
2023-01-21T02:56:01.884Z,102178.84
2023-01-21T02:58:36.896Z,102189.34
2023-01-21T03:01:26.652Z,102179.03
2023-01-21T03:04:21.988Z,102187.84
2023-01-21T03:07:16.426Z,102189.25
2023-01-21T03:09:44.168Z,102186.19
2023-01-21T03:12:29.723Z,102196.25
2023-01-21T03:15:49.610Z,102197.13
2023-01-21T03:18:40.478Z,102193.84
2023-01-21T03:21:13.979Z,102196.84
2023-01-21T03:23:46.087Z,102191.38
2023-01-21T03:26:19.469Z,102195.22
2023-01-21T03:28:52.489Z,102197.31
2023-01-21T03:31:26.063Z,102191.06
2023-01-21T03:34:00.348Z,102197.19
2023-01-21T03:36:53.499Z,102195.63
2023-01-21T03:39:27.277Z,102203.53
2023-01-21T03:41:55.209Z,102201.66
2023-01-21T03:44:22.774Z,102197.00
2023-01-21T03:47:15.845Z,102192.03
2023-01-21T03:50:07.440Z,102194.94
2023-01-21T03:52:35.708Z,102191.47
2023-01-21T03:55:03.296Z,102188.09
2023-01-21T03:57:30.831Z,102196.31
2023-01-21T03:59:58.171Z,102195.94
2023-01-21T04:02:25.616Z,102200.41
2023-01-21T04:04:53.422Z,102203.19
2023-01-21T04:07:20.903Z,102194.94
2023-01-21T04:09:49.850Z,102201.78
2023-01-21T04:12:18.067Z,102198.88
2023-01-21T04:14:45.508Z,102205.03
2023-01-21T04:17:13.308Z,102196.19
2023-01-21T04:19:40.701Z,102206.44
2023-01-21T04:22:08.105Z,102195.50
2023-01-21T04:24:35.681Z,102198.16
2023-01-21T04:27:03.085Z,102203.69
2023-01-21T04:29:30.322Z,102202.50
2023-01-21T04:31:57.753Z,102205.09
2023-01-21T04:34:24.992Z,102198.94
2023-01-21T04:36:52.363Z,102207.78
2023-01-21T04:39:19.745Z,102209.38
2023-01-21T04:41:47.839Z,102208.06
2023-01-21T04:44:15.223Z,102202.44
2023-01-21T04:46:42.709Z,102205.03
2023-01-21T04:49:10.150Z,102210.38
2023-01-21T04:51:37.533Z,102216.47
2023-01-21T04:54:04.837Z,102214.16
2023-01-21T04:56:32.228Z,102208.41
2023-01-21T04:58:59.469Z,102217.25
2023-01-21T05:01:26.864Z,102217.09
2023-01-21T05:03:54.310Z,102214.72
2023-01-21T05:06:21.754Z,102213.13
2023-01-21T05:08:49.186Z,102221.19
2023-01-21T05:11:19.208Z,102216.94
2023-01-21T05:13:46.988Z,102215.34
2023-01-21T05:16:14.691Z,102218.16
2023-01-21T05:18:44.007Z,102220.41
2023-01-21T05:21:13.174Z,102214.44
2023-01-21T05:23:40.612Z,102215.25
2023-01-21T05:26:08.047Z,102209.63
2023-01-21T05:28:35.262Z,102217.25
2023-01-21T05:31:03.396Z,102214.97
2023-01-21T05:33:35.180Z,102213.69
2023-01-21T05:36:03.926Z,102214.56
2023-01-21T05:38:31.660Z,102217.38
2023-01-21T05:41:00.533Z,102216.00
2023-01-21T05:43:28.391Z,102227.34
2023-01-21T05:45:56.483Z,102234.16
2023-01-21T05:48:24.573Z,102227.94
2023-01-21T05:50:52.263Z,102220.63
2023-01-21T05:53:19.798Z,102223.09
2023-01-21T05:55:52.392Z,102228.72
2023-01-21T05:58:20.415Z,102227.03
2023-01-21T06:00:48.683Z,102231.59
2023-01-21T06:03:17.934Z,102220.09
2023-01-21T06:05:46.987Z,102226.28
2023-01-21T06:08:14.451Z,102238.56
2023-01-21T06:10:41.920Z,102236.59
2023-01-21T06:13:11.455Z,102240.25
2023-01-21T06:15:38.827Z,102244.81
2023-01-21T06:18:07.155Z,102248.06
2023-01-21T06:20:34.728Z,102245.78
2023-01-21T06:23:03.733Z,102248.09
2023-01-21T06:25:32.649Z,102248.47
2023-01-21T06:28:01.287Z,102259.88
2023-01-21T06:30:28.804Z,102258.41
2023-01-21T06:32:56.187Z,102264.63
2023-01-21T06:35:23.789Z,102264.72
2023-01-21T06:37:51.228Z,102273.13
2023-01-21T06:40:18.965Z,102273.91
2023-01-21T06:42:47.937Z,102271.03
2023-01-21T06:45:16.285Z,102274.88
2023-01-21T06:47:45.303Z,102274.97
2023-01-21T06:50:15.816Z,102275.81
2023-01-21T06:52:46.016Z,102288.28
2023-01-21T06:55:14.330Z,102285.88
2023-01-21T06:57:43.615Z,102282.06
2023-01-21T07:00:12.342Z,102282.81
2023-01-21T07:02:39.989Z,102288.16
2023-01-21T07:05:08.206Z,102290.47
2023-01-21T07:07:36.031Z,102289.47
2023-01-21T07:10:04.300Z,102285.28
2023-01-21T07:12:31.951Z,102301.81
2023-01-21T07:14:59.393Z,102302.56
2023-01-21T07:17:26.966Z,102298.94
2023-01-21T07:19:54.230Z,102296.38
2023-01-21T07:22:21.558Z,102300.50
2023-01-21T07:24:48.898Z,102309.53
2023-01-21T07:27:16.488Z,102317.72
2023-01-21T07:29:44.033Z,102315.94
2023-01-21T07:32:11.542Z,102322.44
2023-01-21T07:34:38.838Z,102321.78
2023-01-21T07:37:06.224Z,102317.59
2023-01-21T07:39:33.545Z,102318.41
2023-01-21T07:42:00.834Z,102326.63
2023-01-21T07:44:28.227Z,102328.53
2023-01-21T07:46:55.670Z,102331.88
2023-01-21T07:49:22.916Z,102343.88
2023-01-21T07:51:50.307Z,102347.59
2023-01-21T07:54:17.587Z,102345.50
2023-01-21T07:56:44.996Z,102349.09
2023-01-21T07:59:17.757Z,102356.44
2023-01-21T08:01:45.288Z,102362.19
2023-01-21T08:04:12.588Z,102356.31
2023-01-21T08:06:41.547Z,102352.28
2023-01-21T08:09:10.016Z,102360.47
2023-01-21T08:11:37.658Z,102353.84
2023-01-21T08:14:05.705Z,102362.84
2023-01-21T08:16:33.306Z,102372.00
2023-01-21T08:19:00.609Z,102374.41
2023-01-21T08:21:28.176Z,102375.94
2023-01-21T08:23:55.789Z,102378.94
2023-01-21T08:26:25.592Z,102382.84
2023-01-21T08:28:56.357Z,102385.56
2023-01-21T08:31:23.940Z,102392.25
2023-01-21T08:33:51.373Z,102390.09
2023-01-21T08:36:18.639Z,102385.38
2023-01-21T08:38:48.555Z,102386.75
2023-01-21T08:41:17.884Z,102387.63
2023-01-21T08:43:45.454Z,102386.72
2023-01-21T08:46:13.563Z,102399.06
2023-01-21T08:48:40.966Z,102395.81
2023-01-21T08:51:08.480Z,102393.66
2023-01-21T08:53:36.203Z,102400.28
2023-01-21T08:56:05.035Z,102402.72
2023-01-21T08:58:33.287Z,102401.53
2023-01-21T09:01:08.079Z,102402.88
2023-01-21T09:03:35.783Z,102404.78
2023-01-21T09:06:05.285Z,102404.16
2023-01-21T09:08:33.051Z,102402.94
2023-01-21T09:11:01.802Z,102404.56
2023-01-21T09:13:37.734Z,102397.03
2023-01-21T09:16:11.521Z,102403.84
2023-01-21T09:18:39.938Z,102400.53
2023-01-21T09:21:07.962Z,102407.75
2023-01-21T09:23:38.038Z,102411.34
2023-01-21T09:26:16.188Z,102408.50
2023-01-21T09:28:47.073Z,102412.38
2023-01-21T09:31:16.919Z,102418.19
2023-01-21T09:33:48.100Z,102416.75
2023-01-21T09:36:21.489Z,102418.28
2023-01-21T09:38:50.085Z,102428.81
2023-01-21T09:41:33.669Z,102419.69
2023-01-21T09:44:33.969Z,102432.13
2023-01-21T09:47:24.785Z,102434.91
2023-01-21T09:50:22.991Z,102446.41
2023-01-21T09:52:53.612Z,102441.00
2023-01-21T09:55:29.312Z,102436.75
2023-01-21T09:57:59.645Z,102451.59
2023-01-21T10:00:35.836Z,102450.63
2023-01-21T10:03:09.751Z,102448.09
2023-01-21T10:06:02.018Z,102453.91
2023-01-21T10:09:14.455Z,102452.84
2023-01-21T10:12:12.639Z,102461.25
2023-01-21T10:14:52.744Z,102471.09
2023-01-21T10:17:39.599Z,102468.47
2023-01-21T10:20:25.147Z,102470.31
2023-01-21T10:23:17.241Z,102475.44
2023-01-21T10:25:49.280Z,102479.69
2023-01-21T10:28:25.429Z,102482.97
2023-01-21T10:31:02.996Z,102481.53
2023-01-21T10:33:33.785Z,102488.31
2023-01-21T10:36:19.919Z,102486.88
2023-01-21T10:38:59.672Z,102481.63
2023-01-21T10:41:52.199Z,102491.19
2023-01-21T10:44:31.368Z,102490.16
2023-01-21T10:47:17.667Z,102484.56
2023-01-21T10:49:51.095Z,102490.47
2023-01-21T10:52:45.380Z,102493.38
2023-01-21T10:55:43.824Z,102494.19
2023-01-21T10:58:33.084Z,102493.09
2023-01-21T11:01:05.483Z,102484.41
2023-01-21T11:03:39.091Z,102499.47
2023-01-21T11:06:09.341Z,102498.31
2023-01-21T11:08:38.492Z,102499.41
2023-01-21T11:11:07.586Z,102510.00
2023-01-21T11:13:35.747Z,102501.19
2023-01-21T11:16:04.683Z,102513.47
2023-01-21T11:18:37.227Z,102518.97
2023-01-21T11:21:16.679Z,102517.41
2023-01-21T11:23:55.508Z,102516.13
2023-01-21T11:26:36.574Z,102511.94
2023-01-21T11:29:16.647Z,102513.44
2023-01-21T11:31:48.633Z,102504.16
2023-01-21T11:34:22.097Z,102505.25
2023-01-21T11:36:57.444Z,102499.16
2023-01-21T11:39:51.949Z,102507.16
2023-01-21T11:42:20.082Z,102504.47
2023-01-21T11:44:54.723Z,102500.38
2023-01-21T11:47:46.598Z,102506.78
2023-01-21T11:50:35.398Z,102505.94
2023-01-21T11:53:13.045Z,102510.34
2023-01-21T11:55:51.329Z,102506.50
2023-01-21T11:58:30.876Z,102504.22
2023-01-21T12:01:01.154Z,102501.56
2023-01-21T12:03:37.373Z,102495.09
2023-01-21T12:06:07.376Z,102493.81
2023-01-21T12:08:38.710Z,102498.84
2023-01-21T12:11:08.229Z,102488.69
2023-01-21T12:14:29.931Z,102493.41
2023-01-21T12:17:26.115Z,102494.50
2023-01-21T12:20:24.737Z,102498.34
2023-01-21T12:23:11.233Z,102491.13
2023-01-21T12:25:48.487Z,102496.44
2023-01-21T12:28:17.010Z,102488.75
2023-01-21T12:31:21.738Z,102488.63
2023-01-21T12:34:04.208Z,102481.31
2023-01-21T12:36:43.142Z,102489.97
2023-01-21T12:39:17.433Z,102488.56
2023-01-21T12:41:51.475Z,102484.84
2023-01-21T12:44:28.853Z,102484.88
2023-01-21T12:47:03.973Z,102485.41
2023-01-21T12:49:58.954Z,102486.66
2023-01-21T12:52:40.100Z,102480.13
2023-01-21T12:55:20.105Z,102488.06
2023-01-21T12:58:13.322Z,102479.16
2023-01-21T13:00:48.816Z,102475.22
2023-01-21T13:03:58.466Z,102471.56
2023-01-21T13:06:53.964Z,102469.44
2023-01-21T13:09:43.286Z,102474.03
2023-01-21T13:12:21.909Z,102473.81
2023-01-21T13:15:14.822Z,102473.16
2023-01-21T13:17:44.747Z,102473.63
2023-01-21T13:20:18.365Z,102461.44
2023-01-21T13:23:12.934Z,102465.66
2023-01-21T13:26:18.033Z,102460.28
2023-01-21T13:29:13.581Z,102473.28
2023-01-21T13:31:48.548Z,102471.00
2023-01-21T13:34:38.515Z,102479.84
2023-01-21T13:37:15.090Z,102482.00
2023-01-21T13:40:11.252Z,102483.59
2023-01-21T13:42:54.026Z,102481.19
2023-01-21T13:45:36.568Z,102480.78
2023-01-21T13:48:32.672Z,102474.97
2023-01-21T13:51:26.564Z,102476.75
2023-01-21T13:54:14.414Z,102479.38
2023-01-21T13:57:15.478Z,102481.34
2023-01-21T13:59:52.621Z,102486.88
2023-01-21T14:02:23.112Z,102484.59
2023-01-21T14:05:03.123Z,102489.34
2023-01-21T14:07:39.224Z,102492.75
2023-01-21T14:10:23.711Z,102486.53
2023-01-21T14:13:25.258Z,102492.44
2023-01-21T14:16:19.226Z,102484.81
2023-01-21T14:19:11.350Z,102499.59
2023-01-21T14:21:41.702Z,102493.03
2023-01-21T14:24:48.280Z,102500.59
2023-01-21T14:27:38.914Z,102503.28
2023-01-21T14:30:06.575Z,102497.13
2023-01-21T14:32:44.733Z,102502.69
2023-01-21T14:35:34.265Z,102501.63
2023-01-21T14:38:16.757Z,102507.94
2023-01-21T14:40:49.028Z,102501.69
2023-01-21T14:43:43.336Z,102504.94
2023-01-21T14:46:25.933Z,102513.69
2023-01-21T14:49:08.444Z,102513.31
2023-01-21T14:51:44.904Z,102514.94
2023-01-21T14:54:17.390Z,102514.78
2023-01-21T14:57:04.121Z,102522.72
2023-01-21T14:59:39.120Z,102523.16
2023-01-21T15:02:30.794Z,102529.94
2023-01-21T15:05:10.718Z,102530.75
2023-01-21T15:07:44.895Z,102525.47
2023-01-21T15:10:30.251Z,102521.84
2023-01-21T15:13:00.628Z,102530.00
2023-01-21T15:15:39.860Z,102542.44
2023-01-21T15:18:10.154Z,102533.28
2023-01-21T15:20:50.058Z,102525.22
2023-01-21T15:23:30.642Z,102533.84
2023-01-21T15:26:32.244Z,102552.63
2023-01-21T15:29:23.667Z,102545.88
2023-01-21T15:31:51.427Z,102547.06
2023-01-21T15:34:20.976Z,102549.59
2023-01-21T15:36:53.417Z,102554.47
2023-01-21T15:39:33.521Z,102551.88
2023-01-21T15:42:30.172Z,102543.78
2023-01-21T15:45:16.224Z,102554.06
2023-01-21T15:48:27.556Z,102548.38
2023-01-21T15:51:41.789Z,102548.63
2023-01-21T15:54:34.167Z,102556.31
2023-01-21T15:57:14.285Z,102549.91
2023-01-21T15:59:47.862Z,102564.44
2023-01-21T16:02:21.490Z,102565.41
2023-01-21T16:05:17.569Z,102559.41
2023-01-21T16:08:08.071Z,102569.94
2023-01-21T16:11:09.372Z,102578.56
2023-01-21T16:14:04.483Z,102578.41
2023-01-21T16:16:41.242Z,102583.94
2023-01-21T16:19:30.849Z,102576.31
2023-01-21T16:22:03.209Z,102580.41
2023-01-21T16:24:34.071Z,102585.25
2023-01-21T16:27:23.424Z,102591.63
2023-01-21T16:30:02.546Z,102585.41
2023-01-21T16:32:32.498Z,102593.75
2023-01-21T16:35:01.091Z,102594.47
2023-01-21T16:37:29.989Z,102604.94
2023-01-21T16:40:20.693Z,102599.66
2023-01-21T16:42:48.261Z,102595.63
2023-01-21T16:45:19.417Z,102594.47
2023-01-21T16:47:54.303Z,102593.69
2023-01-21T16:50:25.889Z,102615.97
2023-01-21T16:52:54.743Z,102609.97
2023-01-21T16:55:23.212Z,102614.72
2023-01-21T16:57:52.431Z,102610.59
2023-01-21T17:00:32.086Z,102619.97
2023-01-21T17:03:00.564Z,102616.69
2023-01-21T17:05:32.903Z,102626.28
2023-01-21T17:08:04.072Z,102633.56
2023-01-21T17:10:39.221Z,102637.69
2023-01-21T17:13:14.270Z,102641.88
2023-01-21T17:15:44.458Z,102648.75
2023-01-21T17:18:42.913Z,102647.31
2023-01-21T17:21:19.304Z,102652.09
2023-01-21T17:23:48.225Z,102650.38
2023-01-21T17:26:21.412Z,102649.00
2023-01-21T17:28:54.160Z,102658.34
2023-01-21T17:31:26.420Z,102652.28
2023-01-21T17:34:23.536Z,102667.38
2023-01-21T17:36:52.613Z,102666.31
2023-01-21T17:39:50.478Z,102678.13
2023-01-21T17:42:25.900Z,102682.53
2023-01-21T17:44:56.262Z,102685.31
2023-01-21T17:47:32.901Z,102692.69
2023-01-21T17:50:22.175Z,102697.84
2023-01-21T17:53:03.723Z,102702.13
2023-01-21T17:55:40.409Z,102706.00
2023-01-21T17:58:35.944Z,102701.44
2023-01-21T18:01:04.443Z,102694.16
2023-01-21T18:03:32.496Z,102694.66
2023-01-21T18:06:00.746Z,102705.97
2023-01-21T18:08:28.538Z,102712.41
2023-01-21T18:10:56.472Z,102716.56
2023-01-21T18:13:24.281Z,102721.25
2023-01-21T18:15:54.240Z,102723.81
2023-01-21T18:18:25.911Z,102727.81
2023-01-21T18:20:53.624Z,102724.28
2023-01-21T18:23:21.315Z,102725.00
2023-01-21T18:25:52.575Z,102719.63
2023-01-21T18:28:22.468Z,102726.75
2023-01-21T18:30:51.383Z,102722.78
2023-01-21T18:33:19.823Z,102731.38
2023-01-21T18:35:49.529Z,102737.00
2023-01-21T18:38:27.540Z,102741.53
2023-01-21T18:40:58.397Z,102736.34
2023-01-21T18:43:26.192Z,102750.56
2023-01-21T18:45:54.585Z,102746.38
2023-01-21T18:48:28.792Z,102745.03
2023-01-21T18:50:56.473Z,102753.47
2023-01-21T18:53:23.931Z,102757.63
2023-01-21T18:55:53.717Z,102756.38
2023-01-21T18:58:21.269Z,102752.28
2023-01-21T19:00:49.530Z,102753.66
2023-01-21T19:03:17.408Z,102761.28
2023-01-21T19:05:47.779Z,102765.91
2023-01-21T19:08:18.336Z,102767.19
2023-01-21T19:10:45.903Z,102765.56
2023-01-21T19:13:13.300Z,102766.56
2023-01-21T19:15:42.000Z,102773.44
2023-01-21T19:18:11.474Z,102775.31
2023-01-21T19:20:42.852Z,102773.72
2023-01-21T19:23:16.323Z,102779.47
2023-01-21T19:25:53.634Z,102785.25
2023-01-21T19:28:21.496Z,102782.16
2023-01-21T19:30:50.705Z,102781.00
2023-01-21T19:33:18.239Z,102776.00
2023-01-21T19:35:46.061Z,102776.00
2023-01-21T19:38:19.290Z,102778.19
2023-01-21T19:40:47.612Z,102779.25
2023-01-21T19:43:16.970Z,102788.03
2023-01-21T19:45:45.069Z,102779.28
2023-01-21T19:48:14.291Z,102782.91
2023-01-21T19:50:42.473Z,102782.50
2023-01-21T19:53:15.421Z,102783.28
2023-01-21T19:55:44.301Z,102782.06
2023-01-21T19:58:19.709Z,102787.44
2023-01-21T20:00:49.934Z,102792.25
2023-01-21T20:03:19.689Z,102787.44
2023-01-21T20:05:50.120Z,102790.94
2023-01-21T20:08:29.161Z,102789.13
2023-01-21T20:10:57.069Z,102787.97
2023-01-21T20:13:24.495Z,102791.34
2023-01-21T20:15:52.645Z,102790.66
2023-01-21T20:18:26.891Z,102796.72
2023-01-21T20:20:54.739Z,102794.34
2023-01-21T20:23:23.332Z,102797.06
2023-01-21T20:25:57.261Z,102797.41
2023-01-21T20:28:35.195Z,102806.63
2023-01-21T20:31:06.672Z,102803.63
2023-01-21T20:33:36.258Z,102801.72
2023-01-21T20:36:06.791Z,102791.34
2023-01-21T20:38:36.105Z,102797.06
2023-01-21T20:41:05.623Z,102791.03
2023-01-21T20:43:34.279Z,102799.34
2023-01-21T20:46:05.449Z,102799.69
2023-01-21T20:48:39.279Z,102797.13
2023-01-21T20:51:08.542Z,102811.13
2023-01-21T20:53:36.928Z,102808.91
2023-01-21T20:56:18.159Z,102806.53
2023-01-21T20:58:47.932Z,102813.38
2023-01-21T21:01:17.399Z,102804.94
2023-01-21T21:03:45.404Z,102811.00
2023-01-21T21:06:21.479Z,102803.84
2023-01-21T21:08:49.879Z,102818.06
2023-01-21T21:11:18.658Z,102808.31
2023-01-21T21:13:48.530Z,102811.00
2023-01-21T21:16:28.760Z,102807.44
2023-01-21T21:18:56.852Z,102810.13
2023-01-21T21:21:24.464Z,102814.81
2023-01-21T21:23:53.177Z,102815.25
2023-01-21T21:26:29.569Z,102817.28
2023-01-21T21:28:57.901Z,102821.31
2023-01-21T21:31:32.043Z,102817.84
2023-01-21T21:33:59.854Z,102823.84
2023-01-21T21:36:27.431Z,102822.41
2023-01-21T21:38:57.716Z,102829.22
2023-01-21T21:41:44.583Z,102838.88
2023-01-21T21:44:12.988Z,102836.69
2023-01-21T21:46:59.313Z,102835.66
2023-01-21T21:49:27.409Z,102837.28
2023-01-21T21:51:54.910Z,102842.34
2023-01-21T21:54:23.755Z,102831.13
2023-01-21T21:56:51.731Z,102828.50
2023-01-21T21:59:19.520Z,102821.78
2023-01-21T22:01:46.977Z,102821.88
2023-01-21T22:04:14.357Z,102827.44
2023-01-21T22:06:41.656Z,102833.50
2023-01-21T22:09:09.542Z,102839.53
2023-01-21T22:11:37.134Z,102841.56
2023-01-21T22:14:04.889Z,102849.50
2023-01-21T22:16:32.745Z,102846.31
2023-01-21T22:19:01.291Z,102853.97
2023-01-21T22:21:34.630Z,102850.78
2023-01-21T22:24:03.987Z,102854.50
2023-01-21T22:26:31.424Z,102853.06
2023-01-21T22:28:58.821Z,102854.06
2023-01-21T22:31:27.419Z,102851.63
2023-01-21T22:33:55.617Z,102853.97
2023-01-21T22:36:25.201Z,102853.13
2023-01-21T22:38:53.061Z,102857.59
2023-01-21T22:41:24.030Z,102856.94
2023-01-21T22:43:52.274Z,102851.72
2023-01-21T22:46:22.434Z,102853.44
2023-01-21T22:48:50.173Z,102854.50
2023-01-21T22:51:19.610Z,102859.38
2023-01-21T22:53:47.850Z,102867.31
2023-01-21T22:56:17.127Z,102866.28
2023-01-21T22:58:44.879Z,102868.69
2023-01-21T23:01:27.489Z,102869.22
2023-01-21T23:03:55.206Z,102866.59
2023-01-21T23:06:22.620Z,102865.97
2023-01-21T23:08:50.577Z,102867.38
2023-01-21T23:11:19.660Z,102866.66
2023-01-21T23:13:49.300Z,102870.41
2023-01-21T23:16:19.239Z,102871.84
2023-01-21T23:18:47.436Z,102880.72
2023-01-21T23:21:22.381Z,102870.06
2023-01-21T23:23:50.517Z,102872.72
2023-01-21T23:26:22.736Z,102878.16
2023-01-21T23:28:55.334Z,102867.59
2023-01-21T23:31:23.867Z,102871.94
2023-01-21T23:33:52.749Z,102869.25
2023-01-21T23:36:20.428Z,102871.63
2023-01-21T23:38:48.045Z,102880.44
2023-01-21T23:41:21.152Z,102881.66
2023-01-21T23:43:48.721Z,102880.66
2023-01-21T23:46:19.328Z,102879.31
2023-01-21T23:48:47.584Z,102876.34
2023-01-21T23:51:16.307Z,102886.91
2023-01-21T23:53:44.218Z,102884.34
2023-01-21T23:56:20.490Z,102884.94
2023-01-21T23:58:48.772Z,102883.31
